sensor_id;sensor_type;location;lat;lon;timestamp;temperature;humidity
9448;DHT22;4762;48.128;11.376;2023-03-14T00:00:59;9.60;99.90
9448;DHT22;4762;48.128;11.376;2023-03-14T00:03:01;9.50;99.90
9448;DHT22;4762;48.128;11.376;2023-03-14T00:05:03;9.50;99.90
9448;DHT22;4762;48.128;11.376;2023-03-14T00:07:06;9.50;99.90
9448;DHT22;4762;48.128;11.376;2023-03-14T00:09:08;9.50;99.90
9448;DHT22;4762;48.128;11.376;2023-03-14T00:11:11;9.50;99.90
9448;DHT22;4762;48.128;11.376;2023-03-14T00:13:13;9.50;99.90
9448;DHT22;4762;48.128;11.376;2023-03-14T00:15:15;9.50;99.90
9448;DHT22;4762;48.128;11.376;2023-03-14T00:17:18;9.50;99.90
9448;DHT22;4762;48.128;11.376;2023-03-14T00:19:20;9.50;99.90
9448;DHT22;4762;48.128;11.376;2023-03-14T00:21:24;9.60;99.90
9448;DHT22;4762;48.128;11.376;2023-03-14T00:23:28;9.60;99.90
9448;DHT22;4762;48.128;11.376;2023-03-14T00:25:30;9.60;99.90
9448;DHT22;4762;48.128;11.376;2023-03-14T00:27:33;9.70;99.90
9448;DHT22;4762;48.128;11.376;2023-03-14T00:29:36;9.70;99.90
9448;DHT22;4762;48.128;11.376;2023-03-14T00:31:39;9.70;99.90
9448;DHT22;4762;48.128;11.376;2023-03-14T00:33:42;9.70;99.90
9448;DHT22;4762;48.128;11.376;2023-03-14T00:35:51;9.70;99.90
9448;DHT22;4762;48.128;11.376;2023-03-14T00:37:46;9.70;99.90
9448;DHT22;4762;48.128;11.376;2023-03-14T00:39:51;9.60;99.90
9448;DHT22;4762;48.128;11.376;2023-03-14T00:41:51;9.60;99.90
9448;DHT22;4762;48.128;11.376;2023-03-14T00:43:53;9.60;99.90
9448;DHT22;4762;48.128;11.376;2023-03-14T00:45:55;9.70;99.90
9448;DHT22;4762;48.128;11.376;2023-03-14T00:47:58;9.70;99.90
9448;DHT22;4762;48.128;11.376;2023-03-14T00:50:00;9.70;99.90
9448;DHT22;4762;48.128;11.376;2023-03-14T00:52:03;9.70;99.90
9448;DHT22;4762;48.128;11.376;2023-03-14T00:54:05;9.70;99.90
9448;DHT22;4762;48.128;11.376;2023-03-14T00:56:09;9.70;99.90
9448;DHT22;4762;48.128;11.376;2023-03-14T00:58:11;9.70;99.90
9448;DHT22;4762;48.128;11.376;2023-03-14T01:00:13;9.70;99.90
9448;DHT22;4762;48.128;11.376;2023-03-14T01:02:16;9.70;99.90
9448;DHT22;4762;48.128;11.376;2023-03-14T01:04:18;9.60;99.90
9448;DHT22;4762;48.128;11.376;2023-03-14T01:06:21;9.60;99.90
9448;DHT22;4762;48.128;11.376;2023-03-14T01:08:24;9.50;99.90
9448;DHT22;4762;48.128;11.376;2023-03-14T01:10:26;9.50;99.90
9448;DHT22;4762;48.128;11.376;2023-03-14T01:12:29;9.50;99.90
9448;DHT22;4762;48.128;11.376;2023-03-14T01:14:31;9.50;99.90
9448;DHT22;4762;48.128;11.376;2023-03-14T01:16:33;9.50;99.90
9448;DHT22;4762;48.128;11.376;2023-03-14T01:18:36;9.50;99.90
9448;DHT22;4762;48.128;11.376;2023-03-14T01:20:38;9.40;99.90
9448;DHT22;4762;48.128;11.376;2023-03-14T01:22:40;9.30;99.90
9448;DHT22;4762;48.128;11.376;2023-03-14T01:24:42;9.10;99.90
9448;DHT22;4762;48.128;11.376;2023-03-14T01:26:44;9.00;99.90
9448;DHT22;4762;48.128;11.376;2023-03-14T01:28:47;8.90;99.90
9448;DHT22;4762;48.128;11.376;2023-03-14T01:30:49;8.90;99.90
9448;DHT22;4762;48.128;11.376;2023-03-14T01:32:51;8.80;99.90
9448;DHT22;4762;48.128;11.376;2023-03-14T01:34:54;8.80;99.90
9448;DHT22;4762;48.128;11.376;2023-03-14T01:36:58;8.70;99.90
9448;DHT22;4762;48.128;11.376;2023-03-14T01:39:00;8.70;99.90
9448;DHT22;4762;48.128;11.376;2023-03-14T01:41:03;8.70;99.90
9448;DHT22;4762;48.128;11.376;2023-03-14T01:43:06;8.70;99.90
9448;DHT22;4762;48.128;11.376;2023-03-14T01:45:52;8.70;99.90
9448;DHT22;4762;48.128;11.376;2023-03-14T01:47:19;8.70;99.90
9448;DHT22;4762;48.128;11.376;2023-03-14T01:49:30;8.60;99.90
9448;DHT22;4762;48.128;11.376;2023-03-14T01:51:34;8.60;99.90
9448;DHT22;4762;48.128;11.376;2023-03-14T01:53:35;8.50;99.90
9448;DHT22;4762;48.128;11.376;2023-03-14T01:55:36;8.40;99.90
9448;DHT22;4762;48.128;11.376;2023-03-14T01:57:43;8.30;99.90
9448;DHT22;4762;48.128;11.376;2023-03-14T01:59:46;8.20;99.90
9448;DHT22;4762;48.128;11.376;2023-03-14T02:01:46;8.20;99.90
9448;DHT22;4762;48.128;11.376;2023-03-14T02:03:59;8.10;99.90
9448;DHT22;4762;48.128;11.376;2023-03-14T02:06:00;8.10;99.90
9448;DHT22;4762;48.128;11.376;2023-03-14T02:08:02;8.00;99.90
9448;DHT22;4762;48.128;11.376;2023-03-14T02:10:04;7.90;99.90
9448;DHT22;4762;48.128;11.376;2023-03-14T02:12:08;7.90;99.90
9448;DHT22;4762;48.128;11.376;2023-03-14T02:14:13;7.80;99.90
9448;DHT22;4762;48.128;11.376;2023-03-14T02:16:12;7.80;99.90
9448;DHT22;4762;48.128;11.376;2023-03-14T02:18:14;7.80;99.90
9448;DHT22;4762;48.128;11.376;2023-03-14T02:20:29;7.70;99.90
9448;DHT22;4762;48.128;11.376;2023-03-14T02:22:30;7.70;99.90
9448;DHT22;4762;48.128;11.376;2023-03-14T02:24:38;7.70;99.90
9448;DHT22;4762;48.128;11.376;2023-03-14T02:26:38;7.70;99.90
9448;DHT22;4762;48.128;11.376;2023-03-14T02:28:40;7.70;99.90
9448;DHT22;4762;48.128;11.376;2023-03-14T02:30:43;7.70;99.90
9448;DHT22;4762;48.128;11.376;2023-03-14T02:32:46;7.70;99.90
9448;DHT22;4762;48.128;11.376;2023-03-14T02:34:48;7.80;99.90
9448;DHT22;4762;48.128;11.376;2023-03-14T02:36:49;7.70;99.90
9448;DHT22;4762;48.128;11.376;2023-03-14T02:39:02;7.70;99.90
9448;DHT22;4762;48.128;11.376;2023-03-14T02:41:01;7.80;99.90
9448;DHT22;4762;48.128;11.376;2023-03-14T02:43:03;7.80;99.90
9448;DHT22;4762;48.128;11.376;2023-03-14T02:45:31;7.70;99.90
9448;DHT22;4762;48.128;11.376;2023-03-14T02:47:29;7.70;99.90
9448;DHT22;4762;48.128;11.376;2023-03-14T02:49:30;7.70;99.90
9448;DHT22;4762;48.128;11.376;2023-03-14T02:51:32;7.60;99.90
9448;DHT22;4762;48.128;11.376;2023-03-14T02:53:35;7.70;99.90
9448;DHT22;4762;48.128;11.376;2023-03-14T02:55:37;7.60;99.90
9448;DHT22;4762;48.128;11.376;2023-03-14T02:57:39;7.60;99.90
9448;DHT22;4762;48.128;11.376;2023-03-14T02:59:42;7.60;99.90
9448;DHT22;4762;48.128;11.376;2023-03-14T03:01:44;7.50;99.90
9448;DHT22;4762;48.128;11.376;2023-03-14T03:03:46;7.50;99.90
9448;DHT22;4762;48.128;11.376;2023-03-14T03:05:50;7.50;99.90
9448;DHT22;4762;48.128;11.376;2023-03-14T03:07:52;7.50;99.90
9448;DHT22;4762;48.128;11.376;2023-03-14T03:09:54;7.40;99.90
9448;DHT22;4762;48.128;11.376;2023-03-14T03:11:56;7.50;99.90
9448;DHT22;4762;48.128;11.376;2023-03-14T03:13:58;7.50;99.90
9448;DHT22;4762;48.128;11.376;2023-03-14T03:16:01;7.40;99.90
9448;DHT22;4762;48.128;11.376;2023-03-14T03:18:03;7.50;99.90
9448;DHT22;4762;48.128;11.376;2023-03-14T03:20:06;7.40;99.90
9448;DHT22;4762;48.128;11.376;2023-03-14T03:22:09;7.40;99.90
9448;DHT22;4762;48.128;11.376;2023-03-14T03:24:11;7.40;99.90
9448;DHT22;4762;48.128;11.376;2023-03-14T03:26:13;7.40;99.90
9448;DHT22;4762;48.128;11.376;2023-03-14T03:28:15;7.40;99.90
9448;DHT22;4762;48.128;11.376;2023-03-14T03:30:18;7.40;99.90
9448;DHT22;4762;48.128;11.376;2023-03-14T03:32:20;7.40;99.90
9448;DHT22;4762;48.128;11.376;2023-03-14T03:34:22;7.30;99.90
9448;DHT22;4762;48.128;11.376;2023-03-14T03:36:25;7.40;99.90
9448;DHT22;4762;48.128;11.376;2023-03-14T03:38:27;7.30;99.90
9448;DHT22;4762;48.128;11.376;2023-03-14T03:40:29;7.30;99.90
9448;DHT22;4762;48.128;11.376;2023-03-14T03:42:32;7.30;99.90
9448;DHT22;4762;48.128;11.376;2023-03-14T03:44:34;7.30;99.90
9448;DHT22;4762;48.128;11.376;2023-03-14T03:46:36;7.30;99.90
9448;DHT22;4762;48.128;11.376;2023-03-14T03:48:38;7.30;99.90
9448;DHT22;4762;48.128;11.376;2023-03-14T03:50:44;7.40;99.90
9448;DHT22;4762;48.128;11.376;2023-03-14T03:52:46;7.40;99.90
9448;DHT22;4762;48.128;11.376;2023-03-14T03:54:48;7.30;99.90
9448;DHT22;4762;48.128;11.376;2023-03-14T03:56:50;7.40;99.90
9448;DHT22;4762;48.128;11.376;2023-03-14T03:58:59;7.40;99.90
9448;DHT22;4762;48.128;11.376;2023-03-14T04:01:01;7.40;99.90
9448;DHT22;4762;48.128;11.376;2023-03-14T04:03:03;7.40;99.90
9448;DHT22;4762;48.128;11.376;2023-03-14T04:05:05;7.40;99.90
9448;DHT22;4762;48.128;11.376;2023-03-14T04:07:08;7.40;99.90
9448;DHT22;4762;48.128;11.376;2023-03-14T04:09:10;7.40;99.90
9448;DHT22;4762;48.128;11.376;2023-03-14T04:11:12;7.40;99.90
9448;DHT22;4762;48.128;11.376;2023-03-14T04:13:15;7.40;99.90
9448;DHT22;4762;48.128;11.376;2023-03-14T04:15:18;7.40;99.90
9448;DHT22;4762;48.128;11.376;2023-03-14T04:17:20;7.30;99.90
9448;DHT22;4762;48.128;11.376;2023-03-14T04:19:22;7.30;99.90
9448;DHT22;4762;48.128;11.376;2023-03-14T04:21:25;7.30;99.90
9448;DHT22;4762;48.128;11.376;2023-03-14T04:23:27;7.30;99.90
9448;DHT22;4762;48.128;11.376;2023-03-14T04:25:29;7.40;99.90
9448;DHT22;4762;48.128;11.376;2023-03-14T04:27:32;7.30;99.90
9448;DHT22;4762;48.128;11.376;2023-03-14T04:29:34;7.30;99.90
9448;DHT22;4762;48.128;11.376;2023-03-14T04:31:36;7.20;99.90
9448;DHT22;4762;48.128;11.376;2023-03-14T04:33:38;7.20;99.90
9448;DHT22;4762;48.128;11.376;2023-03-14T04:35:41;7.20;99.90
9448;DHT22;4762;48.128;11.376;2023-03-14T04:37:43;7.20;99.90
9448;DHT22;4762;48.128;11.376;2023-03-14T04:39:45;7.30;99.90
9448;DHT22;4762;48.128;11.376;2023-03-14T04:41:47;7.30;99.90
9448;DHT22;4762;48.128;11.376;2023-03-14T04:43:50;7.20;99.90
9448;DHT22;4762;48.128;11.376;2023-03-14T04:45:54;7.20;99.90
9448;DHT22;4762;48.128;11.376;2023-03-14T04:47:56;7.20;99.90
9448;DHT22;4762;48.128;11.376;2023-03-14T04:49:58;7.30;99.90
9448;DHT22;4762;48.128;11.376;2023-03-14T04:52:01;7.30;99.90
9448;DHT22;4762;48.128;11.376;2023-03-14T04:54:03;7.30;99.90
9448;DHT22;4762;48.128;11.376;2023-03-14T04:56:06;7.20;99.90
9448;DHT22;4762;48.128;11.376;2023-03-14T04:58:08;7.30;99.90
9448;DHT22;4762;48.128;11.376;2023-03-14T05:00:11;7.30;99.90
9448;DHT22;4762;48.128;11.376;2023-03-14T05:02:13;7.30;99.90
9448;DHT22;4762;48.128;11.376;2023-03-14T05:04:15;7.20;99.90
9448;DHT22;4762;48.128;11.376;2023-03-14T05:06:18;7.20;99.90
9448;DHT22;4762;48.128;11.376;2023-03-14T05:08:20;7.20;99.90
9448;DHT22;4762;48.128;11.376;2023-03-14T05:10:22;7.20;99.90
9448;DHT22;4762;48.128;11.376;2023-03-14T05:12:24;7.20;99.90
9448;DHT22;4762;48.128;11.376;2023-03-14T05:14:27;7.20;99.90
9448;DHT22;4762;48.128;11.376;2023-03-14T05:16:29;7.10;99.90
9448;DHT22;4762;48.128;11.376;2023-03-14T05:18:31;7.20;99.90
9448;DHT22;4762;48.128;11.376;2023-03-14T05:20:33;7.20;99.90
9448;DHT22;4762;48.128;11.376;2023-03-14T05:22:36;7.20;99.90
9448;DHT22;4762;48.128;11.376;2023-03-14T05:24:38;7.20;99.90
9448;DHT22;4762;48.128;11.376;2023-03-14T05:26:40;7.20;99.90
9448;DHT22;4762;48.128;11.376;2023-03-14T05:28:42;7.20;99.90
9448;DHT22;4762;48.128;11.376;2023-03-14T05:30:45;7.20;99.90
9448;DHT22;4762;48.128;11.376;2023-03-14T05:32:47;7.20;99.90
9448;DHT22;4762;48.128;11.376;2023-03-14T05:34:49;7.20;99.90
9448;DHT22;4762;48.128;11.376;2023-03-14T05:36:52;7.10;99.90
9448;DHT22;4762;48.128;11.376;2023-03-14T05:38:54;7.20;99.90
9448;DHT22;4762;48.128;11.376;2023-03-14T05:40:56;7.10;99.90
9448;DHT22;4762;48.128;11.376;2023-03-14T05:42:58;7.10;99.90
9448;DHT22;4762;48.128;11.376;2023-03-14T05:45:01;7.10;99.90
9448;DHT22;4762;48.128;11.376;2023-03-14T05:47:03;7.10;99.90
9448;DHT22;4762;48.128;11.376;2023-03-14T05:49:05;7.10;99.90
9448;DHT22;4762;48.128;11.376;2023-03-14T05:51:07;7.10;99.90
9448;DHT22;4762;48.128;11.376;2023-03-14T05:53:10;7.10;99.90
9448;DHT22;4762;48.128;11.376;2023-03-14T05:55:12;7.10;99.90
9448;DHT22;4762;48.128;11.376;2023-03-14T05:57:14;7.10;99.90
9448;DHT22;4762;48.128;11.376;2023-03-14T05:59:16;7.10;99.90
9448;DHT22;4762;48.128;11.376;2023-03-14T06:01:19;7.10;99.90
9448;DHT22;4762;48.128;11.376;2023-03-14T06:03:21;7.10;99.90
9448;DHT22;4762;48.128;11.376;2023-03-14T06:05:23;7.20;99.90
9448;DHT22;4762;48.128;11.376;2023-03-14T06:07:25;7.20;99.90
9448;DHT22;4762;48.128;11.376;2023-03-14T06:09:27;7.10;99.90
9448;DHT22;4762;48.128;11.376;2023-03-14T06:11:30;7.20;99.90
9448;DHT22;4762;48.128;11.376;2023-03-14T06:13:32;7.20;99.90
9448;DHT22;4762;48.128;11.376;2023-03-14T06:15:34;7.20;99.90
9448;DHT22;4762;48.128;11.376;2023-03-14T06:17:38;7.20;99.90
9448;DHT22;4762;48.128;11.376;2023-03-14T06:19:40;7.20;99.90
9448;DHT22;4762;48.128;11.376;2023-03-14T06:21:42;7.20;99.90
9448;DHT22;4762;48.128;11.376;2023-03-14T06:23:44;7.20;99.90
9448;DHT22;4762;48.128;11.376;2023-03-14T06:25:46;7.20;99.90
9448;DHT22;4762;48.128;11.376;2023-03-14T06:27:49;7.20;99.90
9448;DHT22;4762;48.128;11.376;2023-03-14T06:29:51;7.30;99.90
9448;DHT22;4762;48.128;11.376;2023-03-14T06:31:53;7.20;99.90
9448;DHT22;4762;48.128;11.376;2023-03-14T06:33:57;7.30;99.90
9448;DHT22;4762;48.128;11.376;2023-03-14T06:35:59;7.30;99.90
9448;DHT22;4762;48.128;11.376;2023-03-14T06:38:02;7.30;99.90
9448;DHT22;4762;48.128;11.376;2023-03-14T06:40:05;7.40;99.90
9448;DHT22;4762;48.128;11.376;2023-03-14T06:42:10;7.40;99.90
9448;DHT22;4762;48.128;11.376;2023-03-14T06:44:13;7.40;99.90
9448;DHT22;4762;48.128;11.376;2023-03-14T06:46:16;7.40;99.90
9448;DHT22;4762;48.128;11.376;2023-03-14T06:48:19;7.40;99.90
9448;DHT22;4762;48.128;11.376;2023-03-14T06:50:22;7.40;99.90
9448;DHT22;4762;48.128;11.376;2023-03-14T06:52:26;7.50;99.90
9448;DHT22;4762;48.128;11.376;2023-03-14T06:54:28;7.50;99.90
9448;DHT22;4762;48.128;11.376;2023-03-14T06:56:31;7.60;99.90
9448;DHT22;4762;48.128;11.376;2023-03-14T06:58:33;7.50;99.90
9448;DHT22;4762;48.128;11.376;2023-03-14T07:00:36;7.60;99.90
9448;DHT22;4762;48.128;11.376;2023-03-14T07:02:41;7.60;99.90
9448;DHT22;4762;48.128;11.376;2023-03-14T07:04:43;7.70;99.90
9448;DHT22;4762;48.128;11.376;2023-03-14T07:06:46;7.80;99.90
9448;DHT22;4762;48.128;11.376;2023-03-14T07:08:48;7.80;99.90
9448;DHT22;4762;48.128;11.376;2023-03-14T07:10:50;7.80;99.90
9448;DHT22;4762;48.128;11.376;2023-03-14T07:12:53;7.80;99.90
9448;DHT22;4762;48.128;11.376;2023-03-14T07:14:55;7.90;99.90
9448;DHT22;4762;48.128;11.376;2023-03-14T07:16:58;7.90;99.90
9448;DHT22;4762;48.128;11.376;2023-03-14T07:19:02;7.90;99.90
9448;DHT22;4762;48.128;11.376;2023-03-14T07:21:05;7.90;99.90
9448;DHT22;4762;48.128;11.376;2023-03-14T07:23:07;7.90;99.90
9448;DHT22;4762;48.128;11.376;2023-03-14T07:25:09;7.90;99.90
9448;DHT22;4762;48.128;11.376;2023-03-14T07:27:12;8.00;99.90
9448;DHT22;4762;48.128;11.376;2023-03-14T07:29:14;8.00;99.90
9448;DHT22;4762;48.128;11.376;2023-03-14T07:31:17;8.00;99.90
9448;DHT22;4762;48.128;11.376;2023-03-14T07:33:19;8.00;99.90
9448;DHT22;4762;48.128;11.376;2023-03-14T07:35:22;8.10;99.90
9448;DHT22;4762;48.128;11.376;2023-03-14T07:37:25;8.10;99.90
9448;DHT22;4762;48.128;11.376;2023-03-14T07:39:28;8.20;99.90
9448;DHT22;4762;48.128;11.376;2023-03-14T07:41:31;8.10;99.90
9448;DHT22;4762;48.128;11.376;2023-03-14T07:43:33;8.20;99.90
9448;DHT22;4762;48.128;11.376;2023-03-14T07:45:35;8.30;99.90
9448;DHT22;4762;48.128;11.376;2023-03-14T07:47:38;8.30;99.90
9448;DHT22;4762;48.128;11.376;2023-03-14T07:49:40;8.40;99.90
9448;DHT22;4762;48.128;11.376;2023-03-14T07:51:42;8.50;99.90
9448;DHT22;4762;48.128;11.376;2023-03-14T07:53:44;8.50;99.90
9448;DHT22;4762;48.128;11.376;2023-03-14T07:55:47;8.50;99.90
9448;DHT22;4762;48.128;11.376;2023-03-14T07:57:49;8.60;99.90
9448;DHT22;4762;48.128;11.376;2023-03-14T07:59:52;8.60;99.90
9448;DHT22;4762;48.128;11.376;2023-03-14T08:01:55;8.70;99.90
9448;DHT22;4762;48.128;11.376;2023-03-14T08:03:57;8.80;99.90
9448;DHT22;4762;48.128;11.376;2023-03-14T08:05:59;8.80;99.90
9448;DHT22;4762;48.128;11.376;2023-03-14T08:08:02;8.90;99.90
9448;DHT22;4762;48.128;11.376;2023-03-14T08:10:05;8.90;99.90
9448;DHT22;4762;48.128;11.376;2023-03-14T08:12:08;9.00;99.90
9448;DHT22;4762;48.128;11.376;2023-03-14T08:14:10;9.00;99.90
9448;DHT22;4762;48.128;11.376;2023-03-14T08:16:13;9.10;99.90
9448;DHT22;4762;48.128;11.376;2023-03-14T08:18:15;9.20;99.90
9448;DHT22;4762;48.128;11.376;2023-03-14T08:20:18;9.20;99.90
9448;DHT22;4762;48.128;11.376;2023-03-14T08:22:20;9.20;99.90
9448;DHT22;4762;48.128;11.376;2023-03-14T08:24:22;9.10;99.90
9448;DHT22;4762;48.128;11.376;2023-03-14T08:26:24;9.10;99.90
9448;DHT22;4762;48.128;11.376;2023-03-14T08:28:26;9.10;99.90
9448;DHT22;4762;48.128;11.376;2023-03-14T08:30:30;9.00;99.90
9448;DHT22;4762;48.128;11.376;2023-03-14T08:32:32;9.00;99.90
9448;DHT22;4762;48.128;11.376;2023-03-14T08:34:34;9.10;99.90
9448;DHT22;4762;48.128;11.376;2023-03-14T08:36:36;9.20;99.90
9448;DHT22;4762;48.128;11.376;2023-03-14T08:38:39;9.30;99.90
